Flight Track Log - Related Links

Times and Time Zones

All times are in EDT time to prevent confusion due to time zone crossing. See the SWA796 flight status page for this flight to view local times or setup timezone preferences in your user account.

Time Position Orientation Groundspeed Altitude Reporting Facility
EDT Latitude Longitude Course Direction KTS MPH feet Rate Location/Type
Sat 11:17:56 AM 38.7333 -90.2833 82° East 188 216 3,300  Level Gateway (St. Louis) TRACON
Sat 11:18:13 AM 38.7286 -90.2703 115° Southeast 182 209 4,000 2,692 Climbing Kansas City Center
Sat 11:19:14 AM 38.7267 -90.2017 92° East 188 216 6,800 3,171 Climbing Kansas City Center
Sat 11:20:16 AM 38.7347 -90.1131 83° East 235 270 10,500 3,415 Climbing Kansas City Center
Sat 11:21:17 AM 38.7450 -90.0094 83° East 286 329 13,800 3,561 Climbing Kansas City Center
Sat 11:22:19 AM 38.7550 -89.9042 83° East 299 344 17,800 3,171 Climbing Kansas City Center
Sat 11:23:00 AM 38.7740 -89.5843 82° East  Level FlightAware Approximate
Sat 11:23:20 AM 38.7669 -89.7669 84° East 321 369 20,300  Level Kansas City Center
Sat 11:24:22 AM 38.7806 -89.6367 82° East 348 400 23,400 2,780 Climbing Kansas City Center
Sat 11:25:23 AM 38.7922 -89.5119 83° East 354 407 26,000 2,146 Climbing Kansas City Center
Sat 11:26:25 AM 38.8072 -89.3836 81° East 366 421 27,800 1,756 Climbing Kansas City Center
Sat 11:27:26 AM 38.8261 -89.2386 80° East 383 441 29,600 1,707 Climbing Kansas City Center
Sat 11:28:28 AM 38.8439 -89.0981 81° East 399 459 31,300 1,707 Climbing Kansas City Center
Sat 11:29:29 AM 38.8586 -88.9797 81° East 399 459 33,100 1,707 Climbing Kansas City Center
Sat 11:30:31 AM 38.8797 -88.8411 79° East 396 456 34,800 1,317 Climbing Kansas City Center
Sat 11:31:32 AM 38.9003 -88.6708 81° East 401 461 35,800 927 Climbing Kansas City Center
Sat 11:32:34 AM 38.9158 -88.5303 82° East 417 480 36,700 1,122 Climbing Kansas City Center
Sat 11:33:35 AM 38.9631 -88.3850 67° East 427 491 38,100 1,211 Climbing Kansas City Center
Sat 11:34:28 AM 39.0208 -88.2489 61° Northeast 439 505 39,000 474 Climbing Indianapolis Center
Sat 11:35:29 AM 39.0825 -88.1067 61° Northeast 445 512 39,000  Level Indianapolis Center
Sat 11:36:40 AM 39.1453 -87.9647 60° Northeast 445 512 39,000  Level Kansas City Center
Sat 11:37:32 AM 39.2036 -87.8278 61° Northeast 443 510 39,000  Level Indianapolis Center
Sat 11:38:33 AM 39.2633 -87.6883 61° Northeast 443 510 39,000  Level Indianapolis Center
Sat 11:39:35 AM 39.3194 -87.5536 62° Northeast 443 510 39,000  Level Indianapolis Center
Sat 11:40:36 AM 39.3794 -87.4156 61° Northeast 442 509 39,000  Level Indianapolis Center
Sat 11:41:38 AM 39.4383 -87.2750 61° Northeast 446 513 39,000  Level Indianapolis Center
Sat 11:42:39 AM 39.5092 -87.1067 61° Northeast 445 512 39,000  Level Indianapolis Center
Sat 11:43:41 AM 39.5683 -86.9656 61° Northeast 446 513 39,000 -293 Level Indianapolis Center
Sat 11:44:42 AM 39.6264 -86.8250 62° Northeast 445 512 38,400 -787 Descending Indianapolis Center
Sat 11:45:43 AM 39.6836 -86.6853 62° Northeast 440 506 37,400 -927 Descending Indianapolis Center
Sat 11:46:45 AM 39.7400 -86.5492 62° Northeast 429 494 36,500 -927 Descending Indianapolis Center
Sat 11:47:46 AM 39.7967 -86.4106 62° Northeast 429 494 35,500 -1,024 Descending Indianapolis Center
Sat 11:48:48 AM 39.8394 -86.2522 71° East 419 482 34,400 -976 Descending Indianapolis Center
Sat 11:49:49 AM 39.8686 -86.1153 74° East 414 476 33,500 -976 Descending Indianapolis Center
Sat 11:50:51 AM 39.8986 -85.9728 75° East 409 471 32,400 -1,024 Descending Indianapolis Center
Sat 11:51:52 AM 39.9283 -85.8333 74° East 402 463 31,400 -984 Descending Indianapolis Center
Sat 11:52:53 AM 39.9567 -85.6942 75° East 399 459 30,400 -976 Descending Indianapolis Center
Sat 11:53:55 AM 39.9856 -85.5572 75° East 396 456 29,400 -683 Descending Indianapolis Center
Sat 11:54:56 AM 40.0192 -85.3939 75° East 389 448 29,000 -197 Descending Indianapolis Center
Sat 11:55:57 AM 40.0472 -85.2586 75° East 389 448 29,000 -49 Level Indianapolis Center
Sat 11:56:59 AM 40.0747 -85.1233 75° East 388 447 28,900 -585 Descending Indianapolis Center
Sat 11:58:00 AM 40.1011 -84.9864 76° East 390 449 27,800 -1,033 Descending Indianapolis Center
Sat 11:59:01 AM 40.1272 -84.8561 75° East 384 442 26,800 -1,024 Descending Indianapolis Center
Sat 12:00:03 PM 40.1542 -84.7206 75° East 382 440 25,700 -976 Descending Indianapolis Center
Sat 12:01:04 PM 40.1800 -84.5889 76° East 371 427 24,800 -976 Descending Indianapolis Center
Sat 12:02:06 PM 40.2078 -84.4550 75° East 377 434 23,700 -878 Descending Indianapolis Center
Sat 12:03:07 PM 40.2381 -84.3003 76° East 373 429 23,000 -541 Descending Indianapolis Center
Sat 12:04:08 PM 40.2636 -84.1700 76° East 366 421 22,600 -1,073 Descending Indianapolis Center
Sat 12:05:10 PM 40.2867 -84.0458 76° East 350 403 20,800 -1,707 Descending Indianapolis Center
Sat 12:06:11 PM 40.3103 -83.9278 75° East 332 382 19,100 -1,632 Descending Indianapolis Center
Sat 12:07:15 PM 40.3342 -83.8100 75° East 320 368 17,400 -1,664 Descending Indianapolis Center
Sat 12:08:10 PM 40.3544 -83.7086 75° East 310 357 15,800 -1,950 Descending Indianapolis Center
Sat 12:09:15 PM 40.3275 -83.6033 109° East 301 346 13,500 -1,952 Descending Indianapolis Center
Sat 12:10:16 PM 40.2786 -83.5169 127° Southeast 294 338 11,700 -1,672 Descending Indianapolis Center
Sat 12:11:17 PM 40.2333 -83.4364 126° Southeast 273 314 10,100 -1,568 Descending Indianapolis Center
Sat 12:12:07 PM 40.2003 -83.3778 126° Southeast 242 278 8,800 -1,691 Descending Indianapolis Center
Sat 12:13:07 PM 40.1556 -83.3014 127° Southeast 235 270 7,000 -1,736 Descending Indianapolis Center
Sat 12:14:08 PM 40.1183 -83.2342 126° Southeast 231 266 5,300 -1,525 Descending Indianapolis Center
Sat 12:15:09 PM 40.0811 -83.1697 127° Southeast 228 262 3,900 -1,191 Descending Indianapolis Center
Sat 12:16:24 PM 40.0381 -83.0942 127° Southeast 224 258 2,600 -574 Descending Indianapolis Center
Sat 12:17:25 PM 40.0086 -83.0422 126° Southeast 195 224 2,600 -280 Level Indianapolis Center
Sat 12:18:11 PM 40.0006 -83.0025 105° East 145 167 2,100 -581 Descending Indianapolis Center
Sat 12:18:27 PM 40.0003 -82.9936 92° East 161 185 2,000 -689 Descending Indianapolis Center
Sat 12:19:12 PM 39.9972 -82.9558 96° East 126 145 1,400 -689 Descending Indianapolis Center
Sat 12:19:28 PM 39.9967 -82.9453 94° East 142 163 1,300 -385 Descending Indianapolis Center
Sat 12:20:30 PM 39.9942 -82.8953 94° East 138 159 900 -387 Descending Indianapolis Center
Sat 12:22:00 PM 39.9980 -82.8920 120° Southeast  Level Estimated
Sat 12:29:00 PM 39.9980 -82.8920 120° Southeast  Level Estimated

Login

Don't have an account? Register now (free) for customized features, flight alerts, and more!